createdAt,value
2022-12-19T00:01:26.803Z,11.30
2022-12-19T00:03:58.093Z,11.30
2022-12-19T00:06:29.590Z,11.40
2022-12-19T00:09:00.579Z,11.40
2022-12-19T00:11:30.379Z,11.50
2022-12-19T00:14:01.102Z,11.50
2022-12-19T00:16:31.755Z,11.50
2022-12-19T00:19:02.005Z,11.50
2022-12-19T00:21:35.151Z,11.50
2022-12-19T00:24:10.463Z,11.50
2022-12-19T00:26:50.056Z,11.60
2022-12-19T00:29:20.157Z,11.60
2022-12-19T00:31:49.053Z,11.60
2022-12-19T00:34:17.731Z,11.60
2022-12-19T00:36:46.448Z,11.50
2022-12-19T00:39:15.121Z,11.60
2022-12-19T00:41:44.647Z,11.60
2022-12-19T00:44:17.265Z,11.50
2022-12-19T00:46:52.959Z,11.50
2022-12-19T00:49:22.208Z,11.40
2022-12-19T00:51:50.838Z,11.40
2022-12-19T00:54:20.463Z,11.40
2022-12-19T00:56:49.683Z,11.40
2022-12-19T00:59:18.292Z,11.30
2022-12-19T01:01:59.891Z,11.30
2022-12-19T01:04:29.858Z,11.30
2022-12-19T01:07:02.686Z,11.30
2022-12-19T01:09:35.919Z,11.30
2022-12-19T01:12:24.647Z,11.20
2022-12-19T01:14:57.747Z,11.20
2022-12-19T01:17:44.141Z,11.30
2022-12-19T01:20:15.803Z,11.30
2022-12-19T01:22:44.428Z,11.30
2022-12-19T01:25:15.708Z,11.20
2022-12-19T01:27:44.445Z,11.20
2022-12-19T01:30:14.290Z,11.20
2022-12-19T01:32:45.555Z,11.20
2022-12-19T01:35:18.839Z,11.20
2022-12-19T01:37:50.989Z,11.30
2022-12-19T01:40:20.070Z,11.30
2022-12-19T01:42:50.013Z,11.30
2022-12-19T01:45:33.904Z,11.30
2022-12-19T01:48:21.737Z,11.30
2022-12-19T01:50:56.319Z,11.20
2022-12-19T01:53:36.219Z,11.20
2022-12-19T01:56:18.847Z,11.20
2022-12-19T01:58:48.752Z,11.10
2022-12-19T02:01:18.897Z,11.20
2022-12-19T02:03:49.644Z,11.20
2022-12-19T02:06:20.201Z,11.10
2022-12-19T02:08:50.287Z,11.10
2022-12-19T02:11:19.743Z,11.00
2022-12-19T02:13:49.025Z,11.00
2022-12-19T02:16:31.250Z,11.00
2022-12-19T02:19:13.989Z,11.00
2022-12-19T02:21:51.381Z,10.90
2022-12-19T02:25:00.113Z,10.80
2022-12-19T02:27:56.903Z,10.80
2022-12-19T02:31:10.778Z,10.70
2022-12-19T02:33:55.343Z,10.80
2022-12-19T02:36:32.940Z,10.80
2022-12-19T02:39:12.140Z,10.70
2022-12-19T02:41:45.788Z,10.70
2022-12-19T02:44:26.659Z,10.70
2022-12-19T02:46:59.186Z,10.70
2022-12-19T02:49:31.419Z,10.70
2022-12-19T02:52:11.398Z,10.70
2022-12-19T02:54:43.574Z,10.70
2022-12-19T02:57:25.034Z,10.60
2022-12-19T03:00:04.242Z,10.60
2022-12-19T03:02:43.191Z,10.60
2022-12-19T03:05:22.102Z,10.60
2022-12-19T03:07:59.806Z,10.60
2022-12-19T03:10:36.214Z,10.50
2022-12-19T03:13:11.109Z,10.50
2022-12-19T03:15:42.700Z,10.40
2022-12-19T03:18:13.286Z,10.30
2022-12-19T03:20:47.296Z,10.30
2022-12-19T03:23:16.689Z,10.30
2022-12-19T03:25:48.711Z,10.30
2022-12-19T03:28:23.910Z,10.30
2022-12-19T03:30:54.262Z,10.40
2022-12-19T03:33:26.100Z,10.40
2022-12-19T03:35:57.000Z,10.40
2022-12-19T03:38:26.706Z,10.40
2022-12-19T03:40:56.862Z,10.30
2022-12-19T03:43:26.493Z,10.30
2022-12-19T03:46:01.458Z,10.30
2022-12-19T03:48:38.491Z,10.30
2022-12-19T03:51:17.598Z,10.30
2022-12-19T03:53:55.716Z,10.20
2022-12-19T03:56:33.526Z,10.20
2022-12-19T03:59:08.998Z,10.20
2022-12-19T04:01:38.697Z,10.20
2022-12-19T04:04:12.277Z,10.10
2022-12-19T04:06:42.422Z,10.10
2022-12-19T04:09:12.369Z,10.00
2022-12-19T04:11:48.726Z,10.00
2022-12-19T04:14:21.488Z,10.10
2022-12-19T04:16:56.962Z,10.10
2022-12-19T04:19:33.426Z,10.00
2022-12-19T04:22:07.028Z,10.10
2022-12-19T04:24:41.971Z,10.00
2022-12-19T04:27:13.302Z,10.00
2022-12-19T04:29:42.749Z,10.00
2022-12-19T04:32:13.196Z,10.00
2022-12-19T04:34:43.277Z,9.90
2022-12-19T04:37:13.202Z,9.90
2022-12-19T04:39:41.836Z,9.90
2022-12-19T04:42:10.490Z,9.90
2022-12-19T04:44:39.262Z,9.90
2022-12-19T04:47:08.027Z,9.90
2022-12-19T04:49:36.664Z,9.80
2022-12-19T04:52:06.935Z,9.80
2022-12-19T04:54:36.840Z,9.80
2022-12-19T04:57:05.656Z,9.80
2022-12-19T04:59:34.491Z,9.80
2022-12-19T05:02:03.285Z,9.80
2022-12-19T05:04:35.022Z,9.70
2022-12-19T05:07:03.684Z,9.70
2022-12-19T05:09:34.163Z,9.70
2022-12-19T05:12:03.678Z,9.70
2022-12-19T05:14:32.289Z,9.70
2022-12-19T05:17:01.296Z,9.80
2022-12-19T05:19:30.391Z,9.80
2022-12-19T05:21:59.606Z,9.80
2022-12-19T05:24:28.635Z,9.70
2022-12-19T05:26:59.597Z,9.80
2022-12-19T05:29:28.245Z,9.80
2022-12-19T05:31:56.904Z,9.80
2022-12-19T05:34:26.254Z,9.70
2022-12-19T05:36:54.923Z,9.60
2022-12-19T05:39:23.564Z,9.70
2022-12-19T05:41:52.277Z,9.50
2022-12-19T05:44:22.491Z,9.40
2022-12-19T05:46:51.193Z,9.40
2022-12-19T05:49:19.922Z,9.40
2022-12-19T05:51:48.889Z,9.50
2022-12-19T05:54:17.501Z,9.50
2022-12-19T05:56:46.279Z,9.60
2022-12-19T05:59:15.003Z,9.70
2022-12-19T06:01:45.127Z,9.70
2022-12-19T06:04:13.852Z,9.70
2022-12-19T06:06:42.786Z,9.60
2022-12-19T06:09:11.393Z,9.50
2022-12-19T06:11:39.980Z,9.50
2022-12-19T06:14:11.954Z,9.50
2022-12-19T06:16:40.757Z,9.50
2022-12-19T06:19:10.880Z,9.50
2022-12-19T06:21:47.879Z,9.50
2022-12-19T06:24:18.147Z,9.50
2022-12-19T06:26:47.253Z,9.50
2022-12-19T06:29:16.362Z,9.50
2022-12-19T06:31:45.271Z,9.60
2022-12-19T06:34:39.457Z,9.50
2022-12-19T06:37:08.373Z,9.50
2022-12-19T06:39:37.444Z,9.60
2022-12-19T06:42:23.188Z,9.60
2022-12-19T06:44:52.637Z,9.60
2022-12-19T06:47:22.930Z,9.60
2022-12-19T06:49:53.124Z,9.50
2022-12-19T06:52:22.519Z,9.60
2022-12-19T06:54:51.145Z,9.60
2022-12-19T06:57:19.798Z,9.60
2022-12-19T06:59:48.466Z,9.70
2022-12-19T07:02:26.273Z,9.80
2022-12-19T07:05:01.551Z,9.90
2022-12-19T07:07:30.998Z,10.00
2022-12-19T07:09:59.710Z,10.10
2022-12-19T07:12:29.301Z,10.30
2022-12-19T07:14:59.177Z,10.40
2022-12-19T07:17:29.019Z,10.50
2022-12-19T07:20:00.340Z,10.60
2022-12-19T07:22:34.309Z,10.70
2022-12-19T07:25:06.151Z,10.70
2022-12-19T07:27:36.403Z,10.80
2022-12-19T07:30:06.616Z,10.90
2022-12-19T07:32:35.574Z,11.00
2022-12-19T07:35:06.159Z,11.00
2022-12-19T07:37:34.914Z,11.10
2022-12-19T07:40:03.604Z,11.20
2022-12-19T07:42:32.907Z,11.30
2022-12-19T07:45:02.750Z,11.40
2022-12-19T07:47:31.470Z,11.50
2022-12-19T07:50:00.161Z,11.60
2022-12-19T07:52:31.354Z,11.70
2022-12-19T07:54:59.959Z,11.80
2022-12-19T07:57:28.527Z,11.90
2022-12-19T07:59:57.165Z,11.90
2022-12-19T08:02:26.229Z,12.00
2022-12-19T08:04:54.947Z,12.10
2022-12-19T08:07:23.559Z,12.20
2022-12-19T08:09:53.679Z,12.30
2022-12-19T08:12:22.480Z,12.40
2022-12-19T08:14:56.845Z,12.50
2022-12-19T08:17:26.434Z,12.50
2022-12-19T08:19:55.110Z,12.70
2022-12-19T08:22:24.364Z,12.70
2022-12-19T08:24:54.601Z,12.70
2022-12-19T08:27:23.269Z,12.80
2022-12-19T08:29:51.960Z,12.80
2022-12-19T08:32:21.819Z,12.90
2022-12-19T08:34:51.117Z,12.90
2022-12-19T08:37:21.933Z,13.00
2022-12-19T08:39:50.775Z,13.00
2022-12-19T08:42:21.163Z,13.00
2022-12-19T08:44:49.881Z,13.00
2022-12-19T08:47:18.446Z,13.00
2022-12-19T08:49:47.127Z,13.00
2022-12-19T08:52:15.839Z,13.10
2022-12-19T08:54:46.223Z,13.20
2022-12-19T08:57:14.907Z,13.20
2022-12-19T08:59:44.902Z,13.30
2022-12-19T09:02:16.370Z,13.30
2022-12-19T09:06:01.765Z,13.30
2022-12-19T09:07:38.574Z,13.30
2022-12-19T09:10:08.880Z,13.30
2022-12-19T09:12:37.537Z,13.30
2022-12-19T09:15:08.413Z,13.40
2022-12-19T09:17:38.416Z,13.30
2022-12-19T09:20:08.844Z,13.40
2022-12-19T09:22:37.417Z,13.50
2022-12-19T09:25:06.744Z,13.60
2022-12-19T09:28:01.226Z,13.70
2022-12-19T09:30:26.646Z,13.60
2022-12-19T09:32:56.737Z,13.70
2022-12-19T09:35:30.088Z,13.70
2022-12-19T09:38:00.762Z,13.80
2022-12-19T09:40:35.090Z,13.80
2022-12-19T09:43:12.547Z,13.90
2022-12-19T09:45:52.751Z,13.90
2022-12-19T09:48:24.219Z,13.80
2022-12-19T09:51:09.962Z,13.90
2022-12-19T09:53:46.372Z,13.80
2022-12-19T09:56:25.127Z,13.80
2022-12-19T09:58:59.771Z,13.80
2022-12-19T10:01:35.357Z,13.80
2022-12-19T10:04:11.122Z,13.90
2022-12-19T10:07:20.545Z,13.90
2022-12-19T10:12:21.581Z,13.90
2022-12-19T10:12:52.844Z,13.90
2022-12-19T10:15:30.817Z,14.00
2022-12-19T10:18:13.436Z,14.10
2022-12-19T10:20:47.555Z,14.10
2022-12-19T10:23:40.078Z,14.30
2022-12-19T10:26:19.020Z,14.40
2022-12-19T10:29:05.743Z,14.60
2022-12-19T10:31:39.699Z,14.70
2022-12-19T10:34:20.302Z,14.80
2022-12-19T10:39:52.545Z,15.00
2022-12-19T10:42:30.314Z,15.10
2022-12-19T10:45:00.741Z,15.20
2022-12-19T10:47:29.436Z,15.50
2022-12-19T10:50:05.448Z,15.60
2022-12-19T10:52:52.924Z,15.90
2022-12-19T10:55:40.287Z,16.40
2022-12-19T10:58:19.659Z,17.00
2022-12-19T11:01:01.337Z,17.40
2022-12-19T11:03:30.722Z,17.80
2022-12-19T11:06:03.804Z,17.50
2022-12-19T11:08:35.320Z,17.60
2022-12-19T11:13:12.990Z,17.40
2022-12-19T11:20:28.142Z,17.10
2022-12-19T11:23:54.861Z,17.60
2022-12-19T11:29:31.660Z,17.70
2022-12-19T11:30:09.926Z,17.60
2022-12-19T11:30:43.366Z,17.50
2022-12-19T11:30:47.664Z,17.20
2022-12-19T11:34:51.351Z,17.00
2022-12-19T11:37:28.084Z,17.00
2022-12-19T11:40:03.353Z,16.60
2022-12-19T11:42:36.716Z,16.70
2022-12-19T11:45:13.199Z,17.00
2022-12-19T11:47:47.150Z,17.00
2022-12-19T11:50:20.883Z,17.30
2022-12-19T11:53:09.408Z,17.30
2022-12-19T11:55:51.281Z,17.90
2022-12-19T11:58:20.291Z,18.00
2022-12-19T12:00:56.961Z,18.60
2022-12-19T12:03:59.563Z,19.40
2022-12-19T12:06:35.628Z,19.50
2022-12-19T12:11:53.175Z,20.40
2022-12-19T12:19:14.581Z,20.80
2022-12-19T12:25:44.577Z,21.50
2022-12-19T12:31:09.104Z,23.40
2022-12-19T12:31:12.320Z,21.60
2022-12-19T12:31:51.388Z,24.20
2022-12-19T12:32:00.732Z,24.40
2022-12-19T12:35:22.407Z,24.30
2022-12-19T12:35:48.802Z,24.40
2022-12-19T12:38:12.179Z,23.50
2022-12-19T12:39:38.213Z,23.30
2022-12-19T12:42:19.606Z,24.20
2022-12-19T12:44:51.941Z,24.70
2022-12-19T12:47:24.788Z,25.30
2022-12-19T12:49:59.954Z,23.10
2022-12-19T12:52:35.160Z,20.90
2022-12-19T12:55:06.086Z,19.40
2022-12-19T12:57:37.183Z,18.60
2022-12-19T13:00:26.847Z,18.20
2022-12-19T13:03:06.161Z,17.40
2022-12-19T13:05:42.304Z,16.80
2022-12-19T13:08:38.156Z,16.60
2022-12-19T13:11:12.857Z,16.40
2022-12-19T13:13:53.211Z,16.30
2022-12-19T13:16:53.238Z,15.80
2022-12-19T13:19:28.364Z,15.70
2022-12-19T13:22:18.082Z,15.70
2022-12-19T13:24:48.287Z,15.70
2022-12-19T13:27:39.156Z,15.60
2022-12-19T13:30:18.451Z,15.50
2022-12-19T13:33:18.715Z,15.50
2022-12-19T13:37:05.658Z,15.50
2022-12-19T13:40:00.348Z,15.50
2022-12-19T13:42:01.363Z,15.50
2022-12-19T13:44:30.531Z,15.60
2022-12-19T13:46:59.292Z,15.60
2022-12-19T13:49:34.551Z,15.50
2022-12-19T13:52:06.712Z,15.50
2022-12-19T13:54:50.703Z,15.50
2022-12-19T13:57:24.507Z,15.40
2022-12-19T14:00:00.279Z,15.50
2022-12-19T14:02:45.232Z,15.30
2022-12-19T14:06:05.800Z,15.20
2022-12-19T14:08:21.039Z,15.30
2022-12-19T14:11:39.309Z,15.20
2022-12-19T14:14:10.083Z,15.00
2022-12-19T14:16:44.632Z,15.00
2022-12-19T14:19:22.418Z,14.90
2022-12-19T14:22:05.120Z,14.80
2022-12-19T14:24:40.100Z,14.80
2022-12-19T14:28:18.709Z,14.70
2022-12-19T14:30:28.033Z,14.70
2022-12-19T14:33:46.476Z,14.60
2022-12-19T14:36:09.840Z,14.60
2022-12-19T14:39:27.717Z,14.60
2022-12-19T14:42:01.541Z,14.60
2022-12-19T14:52:34.685Z,14.50
2022-12-19T14:54:07.009Z,14.50
2022-12-19T14:54:08.730Z,14.50
2022-12-19T14:54:40.850Z,14.40
2022-12-19T14:59:06.881Z,14.30
2022-12-19T15:01:37.300Z,14.20
2022-12-19T15:04:48.024Z,14.10
2022-12-19T15:07:10.036Z,14.00
2022-12-19T15:11:10.987Z,13.90
2022-12-19T15:14:50.493Z,13.80
2022-12-19T15:16:07.526Z,13.80
2022-12-19T15:18:41.253Z,13.60
2022-12-19T15:21:17.273Z,13.50
2022-12-19T15:23:52.757Z,13.50
2022-12-19T15:26:32.602Z,13.30
2022-12-19T15:29:04.309Z,13.20
2022-12-19T15:31:36.483Z,13.20
2022-12-19T15:34:35.035Z,13.10
2022-12-19T15:37:04.818Z,13.20
2022-12-19T15:39:33.525Z,13.10
2022-12-19T15:42:03.714Z,13.00
2022-12-19T15:44:35.794Z,13.00
2022-12-19T15:47:07.908Z,13.00
2022-12-19T15:49:36.723Z,12.90
2022-12-19T15:52:14.618Z,13.00
2022-12-19T15:54:51.282Z,13.00
2022-12-19T15:57:27.392Z,12.90
2022-12-19T15:59:59.069Z,13.00
2022-12-19T16:02:49.659Z,13.00
2022-12-19T16:05:18.764Z,13.00
2022-12-19T16:07:47.998Z,12.90
2022-12-19T16:10:18.308Z,12.80
2022-12-19T16:12:49.869Z,12.80
2022-12-19T16:15:27.850Z,12.80
2022-12-19T16:18:00.669Z,12.70
2022-12-19T16:20:31.791Z,12.70
2022-12-19T16:23:00.491Z,12.60
2022-12-19T16:25:35.289Z,12.50
2022-12-19T16:28:07.392Z,12.40
2022-12-19T16:30:37.562Z,12.20
2022-12-19T16:33:18.775Z,12.10
2022-12-19T16:36:04.562Z,12.00
2022-12-19T16:38:34.541Z,12.00
2022-12-19T16:41:03.298Z,12.00
2022-12-19T16:43:34.652Z,12.00
2022-12-19T16:46:06.932Z,11.90
2022-12-19T16:48:36.853Z,11.90
2022-12-19T16:51:05.684Z,11.80
2022-12-19T16:53:34.677Z,11.90
2022-12-19T16:56:05.832Z,11.90
2022-12-19T16:58:39.646Z,11.80
2022-12-19T17:01:13.135Z,11.70
2022-12-19T17:03:43.272Z,11.60
2022-12-19T17:06:13.684Z,11.40
2022-12-19T17:08:42.528Z,11.40
2022-12-19T17:11:20.017Z,11.40
2022-12-19T17:13:50.356Z,11.40
2022-12-19T17:16:20.750Z,11.40
2022-12-19T17:18:50.161Z,11.40
2022-12-19T17:21:20.892Z,11.40
2022-12-19T17:23:50.774Z,11.40
2022-12-19T17:26:19.780Z,11.30
2022-12-19T17:28:49.233Z,11.30
2022-12-19T17:31:23.729Z,11.30
2022-12-19T17:33:53.204Z,11.30
2022-12-19T17:36:26.102Z,11.30
2022-12-19T17:38:56.434Z,11.30
2022-12-19T17:41:25.603Z,11.30
2022-12-19T17:43:54.284Z,11.30
2022-12-19T17:46:25.767Z,11.30
2022-12-19T17:48:55.382Z,11.30
2022-12-19T17:51:24.848Z,11.20
2022-12-19T17:53:53.664Z,11.10
2022-12-19T17:56:22.746Z,11.00
2022-12-19T17:58:51.476Z,10.90
2022-12-19T18:01:21.457Z,10.80
2022-12-19T18:03:54.373Z,10.70
2022-12-19T18:06:23.368Z,10.70
2022-12-19T18:08:52.049Z,10.70
2022-12-19T18:11:22.983Z,10.70
2022-12-19T18:13:52.560Z,10.80
2022-12-19T18:16:24.040Z,10.80
2022-12-19T18:18:54.339Z,10.80
2022-12-19T18:21:24.840Z,10.70
2022-12-19T18:23:53.600Z,10.70
2022-12-19T18:26:22.274Z,10.70
2022-12-19T18:28:51.082Z,10.70
2022-12-19T18:31:25.572Z,10.60
2022-12-19T18:34:02.057Z,10.60
2022-12-19T18:36:38.306Z,10.60
2022-12-19T18:39:18.947Z,10.60
2022-12-19T18:41:47.842Z,10.50
2022-12-19T18:44:16.745Z,10.50
2022-12-19T18:46:46.518Z,10.50
2022-12-19T18:49:18.140Z,10.40
2022-12-19T18:51:47.958Z,10.40
2022-12-19T18:54:18.652Z,10.30
2022-12-19T18:56:48.342Z,10.30
2022-12-19T18:59:17.005Z,10.40
2022-12-19T19:01:47.811Z,10.40
2022-12-19T19:04:18.757Z,10.40
2022-12-19T19:06:52.103Z,10.30
2022-12-19T19:09:22.812Z,10.20
2022-12-19T19:11:57.425Z,10.10
2022-12-19T19:14:26.139Z,10.10
2022-12-19T19:16:55.121Z,10.20
2022-12-19T19:19:25.834Z,10.20
2022-12-19T19:21:54.577Z,10.20
2022-12-19T19:24:24.062Z,10.30
2022-12-19T19:26:52.729Z,10.40
2022-12-19T19:29:21.307Z,10.40
2022-12-19T19:31:52.669Z,10.40
2022-12-19T19:34:28.283Z,10.30
2022-12-19T19:37:00.732Z,10.30
2022-12-19T19:39:32.436Z,10.30
2022-12-19T19:42:01.358Z,10.20
2022-12-19T19:44:30.297Z,10.10
2022-12-19T19:46:59.243Z,10.10
2022-12-19T19:49:31.446Z,10.00
2022-12-19T19:52:02.856Z,10.10
2022-12-19T19:54:32.223Z,10.00
2022-12-19T19:57:03.265Z,10.00
2022-12-19T19:59:32.515Z,10.00
2022-12-19T20:02:01.238Z,10.00
2022-12-19T20:04:31.582Z,10.10
2022-12-19T20:07:00.313Z,10.10
2022-12-19T20:09:29.123Z,10.10
2022-12-19T20:11:57.932Z,10.00
2022-12-19T20:14:27.941Z,10.00
2022-12-19T20:16:56.592Z,10.00
2022-12-19T20:19:25.390Z,10.00
2022-12-19T20:21:55.507Z,10.00
2022-12-19T20:24:24.125Z,10.00
2022-12-19T20:26:52.764Z,9.90
2022-12-19T20:29:21.653Z,9.90
2022-12-19T20:31:50.482Z,9.80
2022-12-19T20:34:20.179Z,9.70
2022-12-19T20:36:48.868Z,9.60
2022-12-19T20:39:22.329Z,9.60
2022-12-19T20:41:51.613Z,9.50
2022-12-19T20:44:24.395Z,9.50
2022-12-19T20:46:53.642Z,9.50
2022-12-19T20:49:22.328Z,9.40
2022-12-19T20:51:51.099Z,9.40
2022-12-19T20:54:21.426Z,9.30
2022-12-19T20:56:50.181Z,9.30
2022-12-19T20:59:19.396Z,9.40
2022-12-19T21:01:48.287Z,9.40
2022-12-19T21:04:17.453Z,9.40
2022-12-19T21:06:46.306Z,9.40
2022-12-19T21:09:15.014Z,9.50
2022-12-19T21:11:45.009Z,9.50
2022-12-19T21:14:13.622Z,9.50
2022-12-19T21:16:42.352Z,9.50
2022-12-19T21:19:11.408Z,9.40
2022-12-19T21:21:40.158Z,9.30
2022-12-19T21:24:10.205Z,9.40
2022-12-19T21:26:39.078Z,9.40
2022-12-19T21:29:09.242Z,9.40
2022-12-19T21:31:38.247Z,9.30
2022-12-19T21:34:06.927Z,9.30
2022-12-19T21:36:38.758Z,9.20
2022-12-19T21:39:07.584Z,9.20
2022-12-19T21:41:37.962Z,9.10
2022-12-19T21:44:06.642Z,9.00
2022-12-19T21:46:37.576Z,9.00
2022-12-19T21:49:06.784Z,8.90
2022-12-19T21:51:35.465Z,8.90
2022-12-19T21:54:07.118Z,8.90
2022-12-19T21:56:37.370Z,9.00
2022-12-19T21:59:08.131Z,9.00
2022-12-19T22:01:38.404Z,9.00
2022-12-19T22:04:08.795Z,9.00
2022-12-19T22:06:38.878Z,8.90
2022-12-19T22:09:10.123Z,8.90
2022-12-19T22:11:38.865Z,8.80
2022-12-19T22:14:07.901Z,8.80
2022-12-19T22:16:40.115Z,8.80
2022-12-19T22:19:08.997Z,8.80
2022-12-19T22:21:37.654Z,8.90
2022-12-19T22:24:07.123Z,8.90
2022-12-19T22:26:36.561Z,8.90
2022-12-19T22:29:09.677Z,8.90
2022-12-19T22:31:40.893Z,8.90
2022-12-19T22:34:11.359Z,8.90
2022-12-19T22:36:41.963Z,8.90
2022-12-19T22:39:12.750Z,8.90
2022-12-19T22:41:41.985Z,8.90
2022-12-19T22:44:16.965Z,8.90
2022-12-19T22:46:47.038Z,8.90
2022-12-19T22:49:15.977Z,9.00
2022-12-19T22:51:45.505Z,9.00
2022-12-19T22:54:15.003Z,9.00
2022-12-19T22:56:44.217Z,9.00
2022-12-19T22:59:13.913Z,9.00
2022-12-19T23:01:44.934Z,8.90
2022-12-19T23:04:17.744Z,8.90
2022-12-19T23:06:47.534Z,9.00
2022-12-19T23:09:18.450Z,9.00
2022-12-19T23:11:49.967Z,9.00
2022-12-19T23:14:21.111Z,8.90
2022-12-19T23:16:50.219Z,8.90
2022-12-19T23:19:20.448Z,8.90
2022-12-19T23:21:50.827Z,8.90
2022-12-19T23:24:19.444Z,9.00
2022-12-19T23:26:48.065Z,9.00
2022-12-19T23:29:17.528Z,9.10
2022-12-19T23:31:48.159Z,9.10
2022-12-19T23:34:17.756Z,9.00
2022-12-19T23:39:36.947Z,8.90
2022-12-19T23:42:05.726Z,8.80
2022-12-19T23:44:34.523Z,8.80
2022-12-19T23:47:04.208Z,8.80
2022-12-19T23:49:33.874Z,8.90
2022-12-19T23:52:04.041Z,9.00
2022-12-19T23:54:32.827Z,9.00
2022-12-19T23:57:01.498Z,9.10
2022-12-19T23:59:32.767Z,9.10
